createdAt,value
2023-05-09T00:01:46.574Z,13.11
2023-05-09T00:04:13.838Z,13.04
2023-05-09T00:06:40.924Z,13.11
2023-05-09T00:09:08.071Z,13.04
2023-05-09T00:11:35.089Z,13.07
2023-05-09T00:14:02.550Z,12.94
2023-05-09T00:16:29.737Z,13.05
2023-05-09T00:18:58.234Z,13.08
2023-05-09T00:21:25.375Z,13.06
2023-05-09T00:23:52.290Z,13.13
2023-05-09T00:26:19.243Z,13.05
2023-05-09T00:28:47.451Z,13.02
2023-05-09T00:31:14.747Z,13.09
2023-05-09T00:33:42.011Z,12.90
2023-05-09T00:36:09.154Z,12.89
2023-05-09T00:38:36.698Z,12.85
2023-05-09T00:41:03.998Z,12.90
2023-05-09T00:43:31.085Z,12.85
2023-05-09T00:45:58.136Z,12.81
2023-05-09T00:48:25.248Z,12.95
2023-05-09T00:50:53.190Z,12.90
2023-05-09T00:53:20.820Z,12.78
2023-05-09T00:55:48.700Z,12.74
2023-05-09T00:58:16.123Z,12.79
2023-05-09T01:00:43.522Z,12.83
2023-05-09T01:03:10.732Z,12.79
2023-05-09T01:06:27.111Z,12.94
2023-05-09T01:09:32.585Z,12.87
2023-05-09T01:12:13.727Z,12.72
2023-05-09T01:15:08.606Z,12.67
2023-05-09T01:18:02.239Z,12.64
2023-05-09T01:20:41.093Z,12.56
2023-05-09T01:23:10.936Z,12.42
2023-05-09T01:26:02.380Z,12.56
2023-05-09T01:28:44.254Z,12.69
2023-05-09T01:31:11.381Z,12.82
2023-05-09T01:33:40.907Z,12.71
2023-05-09T01:36:16.162Z,12.70
2023-05-09T01:38:44.769Z,12.79
2023-05-09T01:41:16.154Z,12.86
2023-05-09T01:43:47.371Z,12.93
2023-05-09T01:46:17.272Z,12.91
2023-05-09T01:48:45.793Z,13.01
2023-05-09T01:51:15.270Z,12.94
2023-05-09T01:53:43.503Z,13.03
2023-05-09T01:56:12.312Z,12.85
2023-05-09T01:58:41.582Z,12.86
2023-05-09T02:01:09.946Z,12.80
2023-05-09T02:03:39.255Z,12.79
2023-05-09T02:06:06.669Z,12.75
2023-05-09T02:08:33.802Z,12.58
2023-05-09T02:11:00.978Z,12.54
2023-05-09T02:13:28.659Z,12.77
2023-05-09T02:15:57.418Z,12.84
2023-05-09T02:18:24.410Z,12.65
2023-05-09T02:20:51.647Z,12.85
2023-05-09T02:23:19.323Z,12.78
2023-05-09T02:25:47.080Z,12.74
2023-05-09T02:28:15.060Z,12.59
2023-05-09T02:30:47.455Z,12.60
2023-05-09T02:33:14.613Z,12.55
2023-05-09T02:35:44.756Z,12.67
2023-05-09T02:38:14.498Z,12.53
2023-05-09T02:40:44.577Z,12.70
2023-05-09T02:43:11.681Z,12.75
2023-05-09T02:45:38.884Z,12.83
2023-05-09T02:48:08.739Z,12.80
2023-05-09T02:50:38.490Z,12.81
2023-05-09T02:53:06.280Z,12.68
2023-05-09T02:55:33.235Z,12.75
2023-05-09T02:58:12.871Z,12.69
2023-05-09T03:00:43.084Z,12.70
2023-05-09T03:03:11.410Z,12.79
2023-05-09T03:05:38.687Z,12.79
2023-05-09T03:08:05.929Z,12.71
2023-05-09T03:10:34.523Z,12.81
2023-05-09T03:13:01.622Z,12.49
2023-05-09T03:15:28.610Z,12.53
2023-05-09T03:17:56.347Z,12.44
2023-05-09T03:20:23.399Z,12.53
2023-05-09T03:22:50.354Z,12.01
2023-05-09T03:25:17.567Z,12.02
2023-05-09T03:27:45.148Z,12.00
2023-05-09T03:30:15.177Z,12.08
2023-05-09T03:32:44.307Z,12.07
2023-05-09T03:35:11.251Z,12.07
2023-05-09T03:37:38.331Z,12.07
2023-05-09T03:40:08.129Z,12.07
2023-05-09T03:42:42.232Z,11.98
2023-05-09T03:45:10.708Z,11.65
2023-05-09T03:47:37.718Z,11.67
2023-05-09T03:50:06.487Z,11.85
2023-05-09T03:52:34.981Z,11.66
2023-05-09T03:55:03.476Z,11.37
2023-05-09T03:57:35.425Z,11.25
2023-05-09T04:00:05.398Z,11.27
2023-05-09T04:02:42.553Z,11.38
2023-05-09T04:05:17.782Z,11.51
2023-05-09T04:07:45.757Z,11.43
2023-05-09T04:10:15.200Z,11.51
2023-05-09T04:12:42.902Z,11.47
2023-05-09T04:15:11.201Z,11.26
2023-05-09T04:17:38.833Z,11.11
2023-05-09T04:20:08.412Z,11.12
2023-05-09T04:22:36.293Z,11.05
2023-05-09T04:25:04.586Z,10.96
2023-05-09T04:27:32.050Z,11.08
2023-05-09T04:30:00.283Z,11.24
2023-05-09T04:32:27.484Z,11.22
2023-05-09T04:34:54.684Z,11.47
2023-05-09T04:37:26.237Z,11.56
2023-05-09T04:39:54.084Z,11.74
2023-05-09T04:42:27.232Z,11.77
2023-05-09T04:44:54.199Z,11.63
2023-05-09T04:47:22.445Z,11.72
2023-05-09T04:49:49.746Z,11.78
2023-05-09T04:52:16.949Z,11.87
2023-05-09T04:54:44.343Z,11.68
2023-05-09T04:57:17.997Z,11.74
2023-05-09T04:59:50.760Z,11.90
2023-05-09T05:02:18.972Z,11.65
2023-05-09T05:04:47.522Z,11.57
2023-05-09T05:07:15.659Z,11.77
2023-05-09T05:09:46.205Z,11.64
2023-05-09T05:12:13.927Z,11.86
2023-05-09T05:14:42.585Z,11.88
2023-05-09T05:17:12.311Z,12.13
2023-05-09T05:19:40.352Z,12.20
2023-05-09T05:22:08.503Z,12.18
2023-05-09T05:24:38.309Z,12.32
2023-05-09T05:27:05.446Z,12.48
2023-05-09T05:29:32.551Z,12.48
2023-05-09T05:31:59.541Z,12.35
2023-05-09T05:34:26.545Z,12.21
2023-05-09T05:36:53.569Z,12.17
2023-05-09T05:39:20.813Z,12.33
2023-05-09T05:41:48.723Z,12.24
2023-05-09T05:44:16.878Z,11.98
2023-05-09T05:46:45.727Z,12.25
2023-05-09T05:49:12.970Z,12.37
2023-05-09T05:51:39.877Z,12.16
2023-05-09T05:54:08.705Z,12.26
2023-05-09T05:56:38.757Z,12.41
2023-05-09T05:59:13.085Z,12.31
2023-05-09T06:01:40.859Z,12.22
2023-05-09T06:04:08.131Z,12.16
2023-05-09T06:06:35.653Z,12.22
2023-05-09T06:09:02.984Z,12.11
2023-05-09T06:11:29.956Z,12.08
2023-05-09T06:13:57.094Z,12.11
2023-05-09T06:16:28.208Z,12.27
2023-05-09T06:18:56.072Z,12.03
2023-05-09T06:21:23.557Z,12.05
2023-05-09T06:26:24.692Z,12.11
2023-05-09T06:28:51.876Z,12.26
2023-05-09T06:31:18.883Z,12.40
2023-05-09T06:33:46.073Z,12.29
2023-05-09T06:36:13.072Z,12.41
2023-05-09T06:38:40.189Z,12.38
2023-05-09T06:41:07.210Z,12.38
2023-05-09T06:43:34.267Z,12.36
2023-05-09T06:46:01.246Z,12.67
2023-05-09T06:48:28.301Z,12.82
2023-05-09T06:50:55.838Z,12.84
2023-05-09T06:53:23.328Z,12.81
2023-05-09T06:55:50.379Z,12.65
2023-05-09T06:58:17.355Z,12.70
2023-05-09T07:00:44.297Z,12.92
2023-05-09T07:03:11.738Z,12.89
2023-05-09T07:05:39.074Z,12.69
2023-05-09T07:08:06.014Z,12.73
2023-05-09T07:10:33.226Z,12.65
2023-05-09T07:13:00.252Z,12.49
2023-05-09T07:15:40.651Z,12.57
2023-05-09T07:18:08.846Z,12.69
2023-05-09T07:20:37.124Z,12.70
2023-05-09T07:23:04.747Z,12.63
2023-05-09T07:25:32.290Z,12.63
2023-05-09T07:27:59.401Z,12.50
2023-05-09T07:30:29.144Z,12.44
2023-05-09T07:32:56.177Z,12.32
2023-05-09T07:35:23.200Z,12.29
2023-05-09T07:37:50.512Z,12.12
2023-05-09T07:40:18.048Z,12.36
2023-05-09T07:42:49.832Z,12.36
2023-05-09T07:45:18.701Z,12.30
2023-05-09T07:47:46.560Z,12.25
2023-05-09T07:50:13.597Z,11.97
2023-05-09T07:52:42.633Z,11.96
2023-05-09T07:55:09.977Z,12.25
2023-05-09T07:57:37.127Z,11.82
2023-05-09T08:00:08.967Z,12.20
2023-05-09T08:02:42.019Z,12.19
2023-05-09T08:05:11.826Z,12.31
2023-05-09T08:07:41.468Z,12.40
2023-05-09T08:10:16.833Z,12.35
2023-05-09T08:12:44.254Z,12.20
2023-05-09T08:15:12.902Z,12.08
2023-05-09T08:17:40.602Z,12.03
2023-05-09T08:20:09.162Z,12.09
2023-05-09T08:22:37.116Z,11.78
2023-05-09T08:25:05.106Z,11.86
2023-05-09T08:27:33.373Z,11.85
2023-05-09T08:30:02.196Z,11.71
2023-05-09T08:32:33.219Z,11.98
2023-05-09T08:35:01.905Z,12.11
2023-05-09T08:37:31.389Z,12.28
2023-05-09T08:39:58.536Z,12.09
2023-05-09T08:42:26.783Z,11.96
2023-05-09T08:44:53.798Z,12.01
2023-05-09T08:47:23.495Z,12.04
2023-05-09T08:49:52.073Z,12.15
2023-05-09T08:52:20.587Z,12.16
2023-05-09T08:54:48.043Z,12.49
2023-05-09T08:57:16.106Z,12.27
2023-05-09T08:59:43.841Z,12.47
2023-05-09T09:02:15.352Z,12.47
2023-05-09T09:04:43.154Z,12.24
2023-05-09T09:07:13.964Z,12.35
2023-05-09T09:09:46.166Z,12.30
2023-05-09T09:12:15.463Z,12.33
2023-05-09T09:14:48.196Z,12.42
2023-05-09T09:17:19.861Z,12.39
2023-05-09T09:19:50.160Z,12.61
2023-05-09T09:22:20.495Z,12.42
2023-05-09T09:24:47.515Z,12.36
2023-05-09T09:27:14.574Z,12.22
2023-05-09T09:29:45.269Z,12.42
2023-05-09T09:32:13.156Z,12.44
2023-05-09T09:34:40.364Z,12.33
2023-05-09T09:37:08.606Z,12.37
2023-05-09T09:39:36.863Z,12.37
2023-05-09T09:42:11.872Z,12.46
2023-05-09T09:44:39.393Z,12.55
2023-05-09T09:47:10.726Z,12.50
2023-05-09T09:49:37.701Z,12.49
2023-05-09T09:52:04.842Z,12.37
2023-05-09T09:54:32.172Z,12.35
2023-05-09T09:56:59.512Z,12.30
2023-05-09T09:59:28.937Z,12.24
2023-05-09T10:01:57.412Z,12.23
2023-05-09T10:04:27.299Z,12.40
2023-05-09T10:07:06.248Z,12.31
2023-05-09T10:09:35.459Z,12.46
2023-05-09T10:12:04.733Z,12.42
2023-05-09T10:14:35.353Z,12.48
2023-05-09T10:17:05.279Z,12.47
2023-05-09T10:19:33.189Z,12.45
2023-05-09T10:22:10.161Z,12.57
2023-05-09T10:24:59.640Z,12.46
2023-05-09T10:27:29.213Z,12.37
2023-05-09T10:30:23.075Z,12.40
2023-05-09T10:33:03.792Z,12.24
2023-05-09T10:35:40.948Z,12.37
2023-05-09T10:38:07.993Z,12.51
2023-05-09T10:40:35.758Z,12.53
2023-05-09T10:43:02.742Z,12.48
2023-05-09T10:45:32.028Z,12.32
2023-05-09T10:47:59.851Z,12.15
2023-05-09T10:50:27.526Z,11.95
2023-05-09T10:53:17.312Z,11.74
2023-05-09T10:55:47.470Z,11.67
2023-05-09T10:58:26.921Z,11.64
2023-05-09T11:00:57.271Z,12.06
2023-05-09T11:03:26.016Z,12.04
2023-05-09T11:05:57.895Z,12.27
2023-05-09T11:08:25.863Z,12.39
2023-05-09T11:10:55.546Z,12.50
2023-05-09T11:13:24.913Z,12.67
2023-05-09T11:16:01.959Z,12.70
2023-05-09T11:18:29.963Z,12.65
2023-05-09T11:20:57.216Z,12.38
2023-05-09T11:23:31.428Z,12.33
2023-05-09T11:26:07.504Z,12.64
2023-05-09T11:28:39.112Z,12.49
2023-05-09T11:31:17.110Z,12.62
2023-05-09T11:33:49.087Z,12.58
2023-05-09T11:36:33.673Z,12.93
2023-05-09T11:39:09.437Z,12.98
2023-05-09T11:41:46.493Z,13.04
2023-05-09T11:44:20.954Z,13.17
2023-05-09T11:46:49.425Z,13.27
2023-05-09T11:49:17.302Z,13.40
2023-05-09T11:51:44.397Z,13.35
2023-05-09T11:54:13.714Z,13.64
2023-05-09T11:56:42.197Z,13.41
2023-05-09T12:02:35.152Z,13.61
2023-05-09T12:05:16.597Z,13.74
2023-05-09T12:07:44.805Z,13.73
2023-05-09T12:10:19.503Z,13.77
2023-05-09T12:12:52.666Z,13.71
2023-05-09T12:15:21.733Z,13.64
2023-05-09T12:18:04.917Z,13.97
2023-05-09T12:20:42.546Z,14.02
2023-05-09T12:23:11.883Z,13.76
2023-05-09T12:25:39.128Z,13.96
2023-05-09T12:28:06.489Z,14.12
2023-05-09T12:30:34.495Z,14.12
2023-05-09T12:33:01.652Z,13.59
2023-05-09T12:35:29.032Z,13.70
2023-05-09T12:37:58.555Z,13.66
2023-05-09T12:40:25.607Z,13.54
2023-05-09T12:42:54.528Z,13.51
2023-05-09T12:45:21.684Z,13.48
2023-05-09T12:47:52.207Z,13.45
2023-05-09T12:50:23.113Z,13.32
2023-05-09T12:53:02.500Z,13.47
2023-05-09T12:55:40.785Z,12.93
2023-05-09T12:58:08.098Z,12.93
2023-05-09T13:27:27.927Z,12.79
2023-05-09T13:29:54.922Z,12.67
2023-05-09T13:32:22.122Z,12.77
2023-05-09T13:34:49.186Z,12.82
2023-05-09T13:37:16.152Z,12.64
2023-05-09T13:39:43.990Z,12.46
2023-05-09T13:42:11.362Z,12.36
2023-05-09T13:44:38.874Z,12.35
2023-05-09T13:47:07.804Z,12.35
2023-05-09T13:49:34.993Z,12.19
2023-05-09T13:52:02.144Z,12.65
2023-05-09T13:54:34.916Z,12.76
2023-05-09T13:57:03.839Z,12.66
2023-05-09T13:59:31.872Z,12.66
2023-05-09T14:02:01.157Z,12.82
2023-05-09T14:04:29.936Z,12.68
2023-05-09T14:06:59.083Z,12.70
2023-05-09T14:12:48.757Z,12.49
2023-05-09T14:15:17.592Z,12.56
2023-05-09T14:17:46.674Z,12.53
2023-05-09T14:20:23.798Z,12.70
2023-05-09T14:22:51.023Z,12.47
2023-05-09T14:25:18.030Z,12.66
2023-05-09T14:27:45.092Z,12.64
2023-05-09T14:30:13.846Z,12.45
2023-05-09T14:32:41.224Z,12.53
2023-05-09T14:35:11.167Z,12.53
2023-05-09T14:37:38.406Z,12.47
2023-05-09T14:40:08.176Z,12.46
2023-05-09T14:42:36.602Z,12.31
2023-05-09T14:45:04.868Z,12.39
2023-05-09T14:47:34.074Z,12.47
2023-05-09T14:50:01.469Z,12.45
2023-05-09T14:52:31.116Z,12.53
2023-05-09T14:54:59.782Z,12.71
2023-05-09T14:57:26.821Z,12.39
2023-05-09T14:59:53.932Z,12.48
2023-05-09T15:02:20.983Z,12.61
2023-05-09T15:04:48.081Z,12.64
2023-05-09T15:07:15.138Z,12.59
2023-05-09T15:09:42.245Z,12.48
2023-05-09T15:12:09.250Z,12.49
2023-05-09T15:14:36.230Z,12.27
2023-05-09T15:17:04.562Z,12.25
2023-05-09T15:19:32.672Z,12.40
2023-05-09T15:22:02.561Z,12.19
2023-05-09T15:24:29.787Z,12.25
2023-05-09T15:26:56.829Z,12.13
2023-05-09T15:29:24.528Z,12.32
2023-05-09T15:31:51.514Z,12.03
2023-05-09T15:34:18.495Z,12.09
2023-05-09T15:36:46.581Z,12.11
2023-05-09T15:39:13.722Z,12.31
2023-05-09T15:41:42.027Z,12.47
2023-05-09T15:44:12.575Z,12.13
2023-05-09T15:46:40.681Z,12.24
2023-05-09T15:49:08.249Z,12.42
2023-05-09T15:51:36.469Z,12.58
2023-05-09T15:54:03.544Z,12.64
2023-05-09T15:56:30.849Z,12.67
2023-05-09T15:58:58.455Z,12.56
2023-05-09T16:01:25.414Z,12.99
2023-05-09T16:03:52.597Z,12.62
2023-05-09T16:06:19.875Z,12.86
2023-05-09T16:08:47.649Z,12.79
2023-05-09T16:11:16.691Z,12.78
2023-05-09T16:13:44.470Z,12.71
2023-05-09T16:16:11.535Z,12.66
2023-05-09T16:18:39.603Z,12.67
2023-05-09T16:21:06.711Z,12.53
2023-05-09T16:23:33.796Z,12.49
2023-05-09T17:47:18.561Z,12.12
2023-05-09T17:49:45.489Z,12.09
2023-05-09T17:52:13.902Z,11.87
2023-05-09T17:54:44.248Z,11.85
2023-05-09T17:57:11.320Z,11.76
2023-05-09T17:59:40.906Z,11.74
2023-05-09T18:02:08.182Z,11.64
2023-05-09T18:04:37.099Z,11.59
2023-05-09T18:07:08.576Z,11.68
2023-05-09T18:09:39.795Z,11.65
2023-05-09T18:12:07.226Z,11.67
2023-05-09T18:14:34.460Z,11.50
2023-05-09T18:17:07.153Z,11.34
2023-05-09T18:19:35.426Z,11.38
2023-05-09T18:22:03.737Z,11.53
2023-05-09T18:24:30.753Z,11.52
2023-05-09T18:26:58.333Z,11.62
2023-05-09T18:29:27.028Z,11.57
2023-05-09T18:31:56.110Z,11.65
2023-05-09T18:34:23.643Z,11.68
2023-05-09T18:36:52.526Z,11.69
2023-05-09T18:39:19.473Z,11.66
2023-05-09T18:41:46.986Z,11.73
2023-05-09T18:44:18.955Z,11.53
2023-05-09T18:46:49.595Z,11.47
2023-05-09T18:49:17.325Z,11.36
2023-05-09T18:51:44.432Z,11.30
2023-05-09T18:54:14.516Z,11.22
2023-05-09T18:56:43.838Z,11.33
2023-05-09T18:59:14.706Z,11.48
2023-05-09T19:01:42.765Z,11.51
2023-05-09T19:04:10.374Z,11.43
2023-05-09T19:06:39.621Z,11.50
2023-05-09T19:09:07.663Z,11.54
2023-05-09T19:11:34.641Z,11.58
2023-05-09T19:14:02.444Z,11.43
2023-05-09T19:16:35.019Z,11.31
2023-05-09T19:19:02.330Z,11.23
2023-05-09T19:21:30.373Z,11.12
2023-05-09T19:23:57.415Z,11.27
2023-05-09T19:26:24.675Z,11.17
2023-05-09T19:28:52.042Z,10.95
2023-05-09T19:31:22.724Z,11.01
2023-05-09T19:33:49.771Z,11.22
2023-05-09T19:36:18.441Z,11.15
2023-05-09T19:38:45.650Z,11.31
2023-05-09T19:41:13.930Z,11.22
2023-05-09T19:43:41.029Z,11.15
2023-05-09T19:46:08.214Z,11.10
2023-05-09T19:48:35.951Z,11.21
2023-05-09T19:51:08.933Z,11.19
2023-05-09T19:53:35.877Z,11.15
2023-05-09T19:56:02.831Z,11.04
2023-05-09T19:58:29.694Z,11.07
2023-05-09T20:00:56.772Z,11.04
2023-05-09T20:03:23.797Z,10.93
2023-05-09T20:05:53.749Z,11.03
2023-05-09T20:08:21.381Z,10.93
2023-05-09T20:10:48.782Z,10.84
2023-05-09T20:13:21.558Z,10.63
2023-05-09T20:15:48.890Z,10.77
2023-05-09T20:18:16.489Z,10.76
2023-05-09T20:20:50.263Z,10.74
2023-05-09T20:23:18.530Z,10.63
2023-05-09T20:25:45.818Z,10.82
2023-05-09T20:28:16.311Z,10.95
2023-05-09T20:30:43.408Z,10.99
2023-05-09T20:33:10.361Z,10.98
2023-05-09T20:35:37.384Z,10.98
2023-05-09T20:38:04.712Z,10.83
2023-05-09T20:40:32.027Z,10.88
2023-05-09T20:43:00.972Z,10.95
2023-05-09T20:45:28.137Z,10.77
2023-05-09T20:47:56.132Z,10.92
2023-05-09T20:50:25.559Z,11.01
2023-05-09T20:52:52.545Z,11.07
2023-05-09T20:55:23.714Z,11.16
2023-05-09T20:57:52.360Z,11.20
2023-05-09T21:00:19.552Z,11.12
2023-05-09T21:02:46.691Z,11.08
2023-05-09T21:05:13.733Z,11.07
2023-05-09T21:07:40.875Z,11.05
2023-05-09T21:10:13.439Z,11.20
2023-05-09T21:12:40.781Z,11.21
2023-05-09T21:15:10.069Z,11.14
2023-05-09T21:17:37.098Z,11.06
2023-05-09T21:20:04.366Z,11.01
2023-05-09T21:22:31.691Z,11.00
2023-05-09T21:24:59.872Z,11.12
2023-05-09T21:27:27.840Z,10.89
2023-05-09T21:29:54.934Z,10.95
2023-05-09T21:32:22.390Z,11.02
2023-05-09T21:34:49.332Z,10.79
2023-05-09T21:37:16.343Z,10.52
2023-05-09T21:39:43.251Z,10.96
2023-05-09T21:42:10.594Z,10.97
2023-05-09T21:44:37.504Z,11.07
2023-05-09T21:47:04.632Z,10.99
2023-05-09T21:49:31.714Z,11.12
2023-05-09T21:51:59.921Z,10.85
2023-05-09T21:54:26.867Z,10.78
2023-05-09T21:56:53.963Z,11.00
2023-05-09T21:59:22.248Z,11.03
2023-05-09T22:01:49.616Z,11.04
2023-05-09T22:04:16.563Z,10.94
2023-05-09T22:06:43.590Z,11.03
2023-05-09T22:09:10.773Z,11.03
2023-05-09T22:11:37.870Z,11.08
2023-05-09T22:14:04.831Z,11.16
2023-05-09T22:16:31.918Z,11.18
2023-05-09T22:18:58.912Z,11.08
2023-05-09T22:21:25.864Z,11.18
2023-05-09T22:23:52.809Z,11.11
2023-05-09T22:26:19.869Z,11.20
2023-05-09T22:28:46.950Z,11.06
2023-05-09T22:31:13.864Z,10.97
2023-05-09T22:33:40.773Z,11.02
2023-05-09T22:36:09.862Z,10.85
2023-05-09T22:38:36.779Z,10.96
2023-05-09T22:41:03.727Z,10.96
2023-05-09T22:43:38.627Z,11.04
2023-05-09T22:46:06.768Z,11.08
2023-05-09T22:48:33.989Z,11.02
2023-05-09T22:51:00.886Z,11.05
2023-05-09T22:53:28.216Z,10.94
2023-05-09T22:55:55.456Z,10.99
2023-05-09T22:58:22.727Z,10.96
2023-05-09T23:00:49.827Z,11.18
2023-05-09T23:03:17.491Z,11.10
2023-05-09T23:05:44.534Z,11.08
2023-05-09T23:08:11.556Z,11.04
2023-05-09T23:10:38.448Z,11.06
2023-05-09T23:13:05.415Z,11.08
2023-05-09T23:15:32.577Z,11.10
2023-05-09T23:17:59.592Z,11.16
2023-05-09T23:20:26.705Z,11.20
2023-05-09T23:22:53.670Z,11.11
2023-05-09T23:25:20.700Z,10.94
2023-05-09T23:27:48.314Z,11.09
2023-05-09T23:30:15.922Z,11.07
2023-05-09T23:32:43.240Z,10.79
2023-05-09T23:35:10.593Z,10.89
2023-05-09T23:37:37.599Z,10.79
2023-05-09T23:40:05.183Z,10.83
2023-05-09T23:42:32.838Z,10.86
2023-05-09T23:44:59.902Z,10.84
2023-05-09T23:47:27.095Z,10.82
2023-05-09T23:49:54.051Z,10.92
2023-05-09T23:52:20.969Z,10.96
2023-05-09T23:54:47.902Z,11.00
2023-05-09T23:57:15.016Z,11.05
2023-05-09T23:59:42.629Z,11.02
